Time;durP1;ratioP1;P1;durP2;ratioP2;P2;SDS_P1;SDS_P2;PMS_P1;PMS_P2;Temp;Humidity;BMP_temperature;BMP_pressure;BME280_temperature;BME280_humidity;BME280_pressure;Samples;Min_cycle;Max_cycle;Signal;HPM_P1;HPM_P2
2021/07/20 00:00:24;;;;;;;3.27;2.17;;;13.70;99.90;;;;;;2043447;29;20180;-79
2021/07/20 00:01:25;;;;;;;2.63;2.42;;;13.70;99.90;;;;;;2034658;29;20268;-78
2021/07/20 00:02:40;;;;;;;4.10;1.70;;;13.70;99.90;;;;;;2034929;29;20180;-79
2021/07/20 00:03:41;;;;;;;2.70;2.00;;;13.70;99.90;;;;;;2036662;29;20248;-79
2021/07/20 00:04:42;;;;;;;6.47;2.80;;;13.60;99.90;;;;;;2042939;29;20180;-77
2021/07/20 00:05:43;;;;;;;2.80;2.57;;;13.60;99.90;;;;;;2034874;29;20368;-78
2021/07/20 00:06:43;;;;;;;2.23;2.07;;;13.60;99.90;;;;;;2034833;29;20276;-79
2021/07/20 00:07:44;;;;;;;3.03;2.13;;;13.60;99.90;;;;;;2042269;29;20192;-78
2021/07/20 00:08:45;;;;;;;3.17;2.20;;;13.60;99.90;;;;;;2035044;29;20197;-79
2021/07/20 00:09:45;;;;;;;2.70;1.90;;;13.50;99.90;;;;;;2026907;29;21022;-79
2021/07/20 00:10:56;;;;;;;3.63;2.53;;;13.50;99.90;;;;;;2042592;29;20192;-78
2021/07/20 00:11:57;;;;;;;2.45;2.10;;;13.50;99.90;;;;;;2028304;29;20297;-79
2021/07/20 00:12:59;;;;;;;4.70;2.33;;;13.50;99.90;;;;;;2027030;29;20744;-77
2021/07/20 00:14:02;;;;;;;3.05;2.38;;;13.50;99.90;;;;;;2027574;29;20788;-78
2021/07/20 00:15:09;;;;;;;3.85;2.40;;;13.50;99.90;;;;;;2034941;29;20185;-78
2021/07/20 00:16:10;;;;;;;3.10;2.40;;;13.50;99.90;;;;;;2042620;29;20895;-78
2021/07/20 00:17:10;;;;;;;2.83;2.47;;;13.50;99.90;;;;;;2042599;29;20235;-77
2021/07/20 00:18:20;;;;;;;4.17;2.67;;;13.40;99.90;;;;;;2042589;29;20240;-78
2021/07/20 00:19:21;;;;;;;6.28;2.45;;;13.40;99.90;;;;;;2035659;29;20161;-78
2021/07/20 00:20:26;;;;;;;4.67;2.83;;;13.40;99.90;;;;;;2034737;29;20173;-78
2021/07/20 00:21:26;;;;;;;2.42;2.22;;;13.40;99.90;;;;;;2042758;29;20169;-78
2021/07/20 00:22:27;;;;;;;2.07;1.27;;;13.40;99.90;;;;;;2042600;29;20184;-78
2021/07/20 00:23:28;;;;;;;1.90;1.80;;;13.40;99.90;;;;;;2042352;29;20173;-77
2021/07/20 00:24:28;;;;;;;2.20;1.87;;;13.30;99.90;;;;;;2042410;29;20176;-78
2021/07/20 00:25:29;;;;;;;2.00;1.90;;;13.30;99.90;;;;;;2042926;29;20662;-78
2021/07/20 00:26:30;;;;;;;2.77;2.57;;;13.30;99.90;;;;;;2034470;29;20558;-78
2021/07/20 00:27:31;;;;;;;5.53;3.40;;;13.30;99.90;;;;;;2034249;29;20205;-77
2021/07/20 00:28:32;;;;;;;5.30;3.67;;;13.30;99.90;;;;;;2034299;29;20188;-77
2021/07/20 00:29:32;;;;;;;2.60;2.40;;;13.30;99.90;;;;;;2034071;29;20197;-77
2021/07/20 00:30:33;;;;;;;2.67;2.30;;;13.30;99.90;;;;;;2050160;29;20214;-78
2021/07/20 00:31:34;;;;;;;2.45;2.08;;;13.30;99.90;;;;;;2042404;29;20183;-78
2021/07/20 00:32:36;;;;;;;2.10;1.90;;;13.30;99.90;;;;;;2042430;29;20636;-77
2021/07/20 00:33:36;;;;;;;2.38;1.65;;;13.30;99.90;;;;;;2042225;29;20191;-77
2021/07/20 00:34:38;;;;;;;2.60;2.40;;;13.30;99.90;;;;;;2034418;29;20173;-78
2021/07/20 00:35:40;;;;;;;2.13;2.03;;;13.30;99.90;;;;;;2042179;29;20236;-78
2021/07/20 00:36:41;;;;;;;10.00;2.33;;;13.30;99.90;;;;;;2026803;29;20181;-76
2021/07/20 00:37:42;;;;;;;4.43;2.60;;;13.30;99.90;;;;;;2034242;29;20181;-78
2021/07/20 00:38:43;;;;;;;3.70;2.58;;;13.30;99.90;;;;;;2042210;29;20267;-77
2021/07/20 00:39:44;;;;;;;1.60;1.50;;;13.30;99.90;;;;;;2042250;29;20215;-78
2021/07/20 00:40:45;;;;;;;2.73;1.93;;;13.30;99.90;;;;;;2042724;29;20204;-77
2021/07/20 00:41:46;;;;;;;3.17;2.60;;;13.30;99.90;;;;;;2034200;29;20177;-76
2021/07/20 00:42:47;;;;;;;2.97;2.10;;;13.40;99.90;;;;;;2034043;29;20189;-81
2021/07/20 00:43:48;;;;;;;3.05;2.55;;;13.30;99.90;;;;;;2049997;29;20820;-78
2021/07/20 00:44:49;;;;;;;2.87;2.60;;;13.30;99.90;;;;;;2042238;29;20308;-78
2021/07/20 00:45:49;;;;;;;2.80;2.50;;;13.30;99.90;;;;;;2026341;29;20181;-78
2021/07/20 00:46:50;;;;;;;2.60;1.43;;;13.30;99.90;;;;;;2034005;29;20651;-78
2021/07/20 00:47:51;;;;;;;2.75;2.40;;;13.30;99.90;;;;;;2042591;29;20694;-77
2021/07/20 00:48:52;;;;;;;2.60;2.33;;;13.30;99.90;;;;;;2042032;29;20192;-78
2021/07/20 00:49:53;;;;;;;4.77;2.80;;;13.30;99.90;;;;;;2034100;29;20445;-78
2021/07/20 00:50:54;;;;;;;2.37;2.23;;;13.20;99.90;;;;;;2033742;29;20188;-78
2021/07/20 00:51:54;;;;;;;2.60;2.40;;;13.30;99.90;;;;;;2026392;29;20281;-78
2021/07/20 00:52:55;;;;;;;4.07;2.23;;;13.20;99.90;;;;;;2026214;29;20186;-77
2021/07/20 00:53:56;;;;;;;2.90;2.40;;;13.20;99.90;;;;;;2041929;29;20204;-78
2021/07/20 00:54:57;;;;;;;1.63;1.53;;;13.20;99.90;;;;;;2042012;29;20574;-78
2021/07/20 00:55:57;;;;;;;4.37;2.90;;;13.20;99.90;;;;;;2033993;29;20224;-77
2021/07/20 00:56:58;;;;;;;1.97;1.87;;;13.20;99.90;;;;;;2034053;29;20185;-76
2021/07/20 00:57:59;;;;;;;4.17;3.33;;;13.20;99.90;;;;;;2028762;29;20205;-78
2021/07/20 00:59:01;;;;;;;2.87;2.60;;;13.20;99.90;;;;;;2018685;29;20273;-77
2021/07/20 01:00:08;;;;;;;2.90;2.63;;;13.10;99.90;;;;;;2034039;29;20692;-77
2021/07/20 01:01:09;;;;;;;3.20;2.55;;;13.10;99.90;;;;;;2041527;29;20181;-78
2021/07/20 01:02:10;;;;;;;2.67;2.47;;;13.10;99.90;;;;;;2041749;29;20632;-77
2021/07/20 01:03:11;;;;;;;3.30;2.47;;;13.10;99.90;;;;;;2041546;29;20623;-78
2021/07/20 01:04:12;;;;;;;3.37;2.37;;;13.10;99.90;;;;;;2033988;29;20734;-77
2021/07/20 01:05:22;;;;;;;3.57;3.23;;;13.00;99.90;;;;;;2041949;29;20176;-77
2021/07/20 01:06:24;;;;;;;1.73;1.63;;;13.00;99.90;;;;;;2035107;29;20217;-78
2021/07/20 01:07:26;;;;;;;3.97;3.38;;;13.00;99.90;;;;;;2033655;29;20188;-78
2021/07/20 01:08:27;;;;;;;3.70;2.78;;;13.00;99.90;;;;;;2032885;29;20670;-78
2021/07/20 01:09:28;;;;;;;4.30;3.08;;;13.00;99.90;;;;;;2033576;29;20208;-78
2021/07/20 01:10:30;;;;;;;3.25;2.97;;;13.00;99.90;;;;;;2033662;29;20229;-78
2021/07/20 01:11:33;;;;;;;2.55;2.35;;;12.90;99.90;;;;;;2033894;29;20177;-78
2021/07/20 01:12:38;;;;;;;2.40;2.22;;;12.90;99.90;;;;;;2026193;29;20189;-77
2021/07/20 01:13:40;;;;;;;2.55;2.20;;;12.90;99.90;;;;;;2027247;29;20170;-78
2021/07/20 01:14:44;;;;;;;3.10;2.78;;;12.90;99.90;;;;;;2026588;29;20185;-78
2021/07/20 01:15:45;;;;;;;4.88;2.63;;;12.90;99.90;;;;;;2026481;29;20192;-78
2021/07/20 01:16:46;;;;;;;5.83;1.90;;;12.90;99.90;;;;;;2033795;29;20268;-77
2021/07/20 01:17:47;;;;;;;3.80;3.20;;;12.90;99.90;;;;;;2041345;29;20431;-78
2021/07/20 01:18:50;;;;;;;1.67;1.50;;;12.90;99.90;;;;;;2026019;29;20556;-78
2021/07/20 01:19:55;;;;;;;1.67;1.58;;;12.80;99.90;;;;;;2026015;29;20228;-78
2021/07/20 01:20:57;;;;;;;2.38;2.08;;;12.80;99.90;;;;;;2027106;29;20629;-77
2021/07/20 01:22:01;;;;;;;5.40;2.22;;;12.80;99.90;;;;;;2033515;29;20560;-78
2021/07/20 01:23:18;;;;;;;4.10;2.65;;;12.80;99.90;;;;;;2034011;29;20192;-78
2021/07/20 01:24:19;;;;;;;3.53;3.22;;;12.70;99.90;;;;;;2035909;29;20181;-76
2021/07/20 01:25:20;;;;;;;2.53;2.33;;;12.70;99.90;;;;;;2034535;29;20184;-77
2021/07/20 01:26:21;;;;;;;2.65;2.45;;;12.70;99.90;;;;;;2025929;29;20191;-77
2021/07/20 01:27:22;;;;;;;2.33;1.97;;;12.70;99.90;;;;;;2033634;29;20264;-78
2021/07/20 01:28:24;;;;;;;5.57;2.70;;;12.70;99.90;;;;;;2033489;29;20287;-77
2021/07/20 01:29:25;;;;;;;4.13;2.35;;;12.70;99.90;;;;;;2026128;29;20189;-76
2021/07/20 01:30:28;;;;;;;2.40;2.13;;;12.70;99.90;;;;;;2041330;29;20180;-77
2021/07/20 01:31:31;;;;;;;2.25;2.10;;;12.80;99.90;;;;;;2041567;29;20239;-77
2021/07/20 01:32:34;;;;;;;3.67;3.33;;;12.70;99.90;;;;;;2026000;29;20190;-76
2021/07/20 01:33:38;;;;;;;3.50;3.20;;;12.70;99.90;;;;;;2026329;29;20186;-77
2021/07/20 01:34:40;;;;;;;2.97;2.28;;;12.70;99.90;;;;;;2034121;29;20188;-78
2021/07/20 01:35:45;;;;;;;4.53;2.67;;;12.70;99.90;;;;;;2033861;29;20181;-77
2021/07/20 01:36:48;;;;;;;3.20;2.03;;;12.70;99.90;;;;;;2033744;29;20193;-78
2021/07/20 01:37:51;;;;;;;2.63;2.35;;;12.70;99.90;;;;;;2026016;29;20222;-77
2021/07/20 01:38:54;;;;;;;4.13;2.85;;;12.70;99.90;;;;;;2025638;29;20196;-78
2021/07/20 01:39:57;;;;;;;5.00;2.72;;;12.70;99.90;;;;;;2033809;29;20205;-77
2021/07/20 01:41:07;;;;;;;2.50;1.85;;;12.70;99.90;;;;;;2033447;29;20557;-78
2021/07/20 01:42:08;;;;;;;4.18;3.25;;;12.70;99.90;;;;;;2028169;29;20214;-77
2021/07/20 01:43:11;;;;;;;3.45;3.20;;;12.70;99.90;;;;;;2025862;29;20182;-78
2021/07/20 01:44:13;;;;;;;2.72;1.70;;;12.70;99.90;;;;;;2026258;29;20177;-77
2021/07/20 01:45:14;;;;;;;3.58;3.10;;;12.70;99.90;;;;;;2033610;29;20188;-78
2021/07/20 01:46:15;;;;;;;5.18;2.70;;;12.70;99.90;;;;;;2033735;29;20185;-76
2021/07/20 01:47:17;;;;;;;2.38;2.17;;;12.70;99.90;;;;;;2033406;29;20185;-78
2021/07/20 01:48:20;;;;;;;4.47;3.50;;;12.70;99.90;;;;;;2025956;29;20194;-78
2021/07/20 01:49:22;;;;;;;3.88;3.13;;;12.70;99.90;;;;;;2025699;29;20201;-77
2021/07/20 01:50:23;;;;;;;4.40;2.83;;;12.70;99.90;;;;;;2026211;29;20189;-76
2021/07/20 01:51:26;;;;;;;3.80;3.50;;;12.70;99.90;;;;;;2033636;29;20228;-78
2021/07/20 01:52:27;;;;;;;2.60;2.40;;;12.70;99.90;;;;;;2041292;29;20191;-77
2021/07/20 01:53:29;;;;;;;3.97;2.88;;;12.60;99.90;;;;;;2042446;29;20244;-77
2021/07/20 01:54:30;;;;;;;4.47;3.13;;;12.60;99.90;;;;;;2041394;29;20264;-78
2021/07/20 01:55:31;;;;;;;2.40;2.23;;;12.70;99.90;;;;;;2033688;29;20185;-78
2021/07/20 01:56:32;;;;;;;3.10;2.80;;;12.70;99.90;;;;;;2025706;29;20699;-78
2021/07/20 01:57:33;;;;;;;2.20;2.03;;;12.70;99.90;;;;;;2033698;29;20608;-77
2021/07/20 01:58:41;;;;;;;2.35;2.22;;;12.70;99.90;;;;;;2041276;29;20205;-78
2021/07/20 01:59:43;;;;;;;3.75;3.28;;;12.70;99.90;;;;;;2040960;29;20200;-78
2021/07/20 02:00:43;;;;;;;3.45;3.13;;;12.60;99.90;;;;;;2026240;29;20186;-77
2021/07/20 02:08:52;;;;;;;4.15;2.25;;;12.60;99.90;;;;;;2038749;29;20600;-77
2021/07/20 02:09:55;;;;;;;3.40;2.92;;;12.60;99.90;;;;;;2036289;29;20204;-77
2021/07/20 02:11:12;;;;;;;6.75;3.38;;;12.50;99.90;;;;;;2032781;29;20695;-78
2021/07/20 02:12:15;;;;;;;2.13;2.03;;;12.60;99.90;;;;;;2035164;29;20197;-77
2021/07/20 02:13:18;;;;;;;5.63;2.88;;;12.60;99.90;;;;;;2033610;29;20191;-78
2021/07/20 02:14:23;;;;;;;3.72;3.20;;;12.60;99.90;;;;;;2033836;29;20517;-78
2021/07/20 02:15:24;;;;;;;3.38;2.00;;;12.50;99.90;;;;;;2026096;29;20186;-78
2021/07/20 02:16:33;;;;;;;2.08;1.98;;;12.60;99.90;;;;;;2025668;29;20280;-78
2021/07/20 02:17:38;;;;;;;4.70;3.10;;;12.60;99.90;;;;;;2026107;29;20637;-77
2021/07/20 02:18:46;;;;;;;2.65;2.45;;;12.60;99.90;;;;;;2026645;29;20692;-78
2021/07/20 02:19:54;;;;;;;3.33;2.88;;;12.50;99.90;;;;;;2032702;29;20200;-78
2021/07/20 02:20:56;;;;;;;4.60;2.50;;;12.50;99.90;;;;;;2033978;29;20545;-78
2021/07/20 02:21:58;;;;;;;6.00;3.00;;;12.50;99.90;;;;;;2033468;29;20177;-78
2021/07/20 02:22:59;;;;;;;4.72;2.95;;;12.50;99.90;;;;;;2033514;29;20185;-78
2021/07/20 02:24:00;;;;;;;3.10;2.00;;;12.50;99.90;;;;;;2025517;29;20209;-76
2021/07/20 02:25:03;;;;;;;4.63;2.95;;;12.50;99.90;;;;;;2025501;29;20182;-78
2021/07/20 02:26:06;;;;;;;4.15;3.85;;;12.50;99.90;;;;;;2033645;29;20229;-78
2021/07/20 02:27:08;;;;;;;3.72;3.05;;;12.50;99.90;;;;;;2041079;29;20184;-77
2021/07/20 02:28:10;;;;;;;3.05;2.85;;;12.50;99.90;;;;;;2033554;29;20185;-78
2021/07/20 02:29:13;;;;;;;2.65;2.15;;;12.50;99.90;;;;;;2033164;29;20181;-75
2021/07/20 02:30:16;;;;;;;4.25;3.30;;;12.40;99.90;;;;;;2041048;29;20751;-77
2021/07/20 02:31:20;;;;;;;6.50;2.97;;;12.50;99.90;;;;;;2040994;29;20685;-78
2021/07/20 02:32:23;;;;;;;3.72;3.42;;;12.40;99.90;;;;;;2033511;29;20264;-77
2021/07/20 02:33:25;;;;;;;3.55;3.25;;;12.40;99.90;;;;;;2033525;29;20199;-77
2021/07/20 02:34:29;;;;;;;3.67;2.90;;;12.40;99.90;;;;;;2032917;29;20247;-78
2021/07/20 02:35:31;;;;;;;2.20;2.10;;;12.40;99.90;;;;;;2025846;29;20624;-76
2021/07/20 02:36:32;;;;;;;4.90;3.45;;;12.40;99.90;;;;;;2033130;29;20629;-77
2021/07/20 02:37:34;;;;;;;4.50;3.80;;;12.30;99.90;;;;;;2032935;29;20180;-77
2021/07/20 02:38:38;;;;;;;3.97;3.28;;;12.40;99.90;;;;;;2033050;29;20519;-78
2021/07/20 02:39:41;;;;;;;4.22;2.22;;;12.40;99.90;;;;;;2033702;29;20215;-76
2021/07/20 02:40:43;;;;;;;1.88;1.77;;;12.40;99.90;;;;;;2033174;29;20616;-77
2021/07/20 02:41:46;;;;;;;2.90;2.65;;;12.40;99.90;;;;;;2033260;29;20180;-77
2021/07/20 02:42:48;;;;;;;3.88;2.10;;;12.40;99.90;;;;;;2033335;29;20200;-77
2021/07/20 02:43:49;;;;;;;3.13;2.80;;;12.30;99.90;;;;;;2040835;29;20239;-77
2021/07/20 02:44:52;;;;;;;3.17;2.90;;;12.40;99.90;;;;;;2033240;29;20233;-77
2021/07/20 02:45:55;;;;;;;5.10;2.45;;;12.40;99.90;;;;;;2033302;29;20252;-77
2021/07/20 02:46:59;;;;;;;3.38;2.90;;;12.30;99.90;;;;;;2040851;29;20615;-76
2021/07/20 02:48:00;;;;;;;4.07;2.97;;;12.20;99.90;;;;;;2025480;29;20189;-77
2021/07/20 02:49:01;;;;;;;2.47;2.27;;;12.20;99.90;;;;;;2025324;29;20216;-76
2021/07/20 02:50:06;;;;;;;3.22;2.88;;;12.20;99.90;;;;;;2033106;29;20209;-76
2021/07/20 02:51:09;;;;;;;4.10;2.60;;;12.20;99.90;;;;;;2033365;29;20671;-77
2021/07/20 02:52:11;;;;;;;3.28;2.80;;;12.20;99.90;;;;;;2033229;29;20195;-77
2021/07/20 02:53:12;;;;;;;3.20;2.90;;;12.20;99.90;;;;;;2025135;29;20216;-77
2021/07/20 02:54:17;;;;;;;5.50;2.80;;;12.20;99.90;;;;;;2032768;29;20192;-77
2021/07/20 02:55:18;;;;;;;3.80;3.50;;;12.30;99.90;;;;;;2025984;29;20209;-76
2021/07/20 02:56:20;;;;;;;4.22;3.35;;;12.20;99.90;;;;;;2033119;29;20193;-77
2021/07/20 02:57:22;;;;;;;2.92;2.33;;;12.20;99.90;;;;;;2025094;29;20200;-77
2021/07/20 02:58:25;;;;;;;3.28;3.00;;;12.20;99.90;;;;;;2025056;29;20304;-76
2021/07/20 02:59:28;;;;;;;3.00;2.80;;;12.20;99.90;;;;;;2033084;29;20180;-76
2021/07/20 03:00:29;;;;;;;2.92;2.72;;;12.20;99.90;;;;;;2040891;29;20194;-77
2021/07/20 03:01:33;;;;;;;6.50;3.38;;;12.20;99.90;;;;;;2032993;29;20271;-77
2021/07/20 03:02:37;;;;;;;5.53;3.72;;;12.20;99.90;;;;;;2025525;29;20188;-77
2021/07/20 03:03:38;;;;;;;8.30;3.35;;;12.30;99.90;;;;;;2025979;29;20182;-75
2021/07/20 03:04:39;;;;;;;5.82;3.08;;;12.20;99.90;;;;;;2025033;29;20186;-75
2021/07/20 03:05:41;;;;;;;3.53;2.53;;;12.20;99.90;;;;;;2027626;29;20652;-77
2021/07/20 03:06:52;;;;;;;3.28;2.97;;;12.20;99.90;;;;;;2017476;29;20273;-76
2021/07/20 03:07:57;;;;;;;3.53;2.60;;;12.20;99.90;;;;;;2027726;29;20185;-77
2021/07/20 03:08:59;;;;;;;4.07;2.55;;;12.20;99.90;;;;;;2032537;29;20195;-77
2021/07/20 03:10:01;;;;;;;5.03;3.08;;;12.20;99.90;;;;;;2024729;29;20231;-77
2021/07/20 03:11:09;;;;;;;4.18;3.80;;;12.20;99.90;;;;;;2025136;29;20210;-77
2021/07/20 03:12:13;;;;;;;4.53;3.08;;;12.20;99.90;;;;;;2033322;29;20193;-78
2021/07/20 03:13:15;;;;;;;5.72;2.42;;;12.20;99.90;;;;;;2024883;29;20181;-77
2021/07/20 03:14:21;;;;;;;4.30;3.22;;;12.20;99.90;;;;;;2024985;29;20268;-77
2021/07/20 03:15:22;;;;;;;4.38;3.15;;;12.20;99.90;;;;;;2033208;29;20170;-77
2021/07/20 03:16:25;;;;;;;5.13;3.50;;;12.20;99.90;;;;;;2032471;29;20261;-78
2021/07/20 03:17:28;;;;;;;3.58;3.10;;;12.20;99.90;;;;;;2032918;29;20267;-76
2021/07/20 03:18:30;;;;;;;3.15;2.70;;;12.20;99.90;;;;;;2032484;29;20231;-77
2021/07/20 03:19:33;;;;;;;7.95;3.55;;;12.10;99.90;;;;;;2032694;29;20262;-75
2021/07/20 03:20:37;;;;;;;3.30;3.00;;;12.10;99.90;;;;;;2032528;29;20206;-77
2021/07/20 03:21:40;;;;;;;3.95;3.13;;;12.10;99.90;;;;;;2033316;29;20177;-77
2021/07/20 03:22:43;;;;;;;12.07;3.05;;;12.10;99.90;;;;;;2032511;29;20185;-76
2021/07/20 03:23:45;;;;;;;6.30;3.10;;;12.20;99.90;;;;;;2032925;29;20268;-76
2021/07/20 03:24:47;;;;;;;3.95;3.22;;;12.10;99.90;;;;;;2032501;29;20268;-77
2021/07/20 03:25:49;;;;;;;2.85;2.63;;;12.10;99.90;;;;;;2024997;29;20325;-76
2021/07/20 03:26:52;;;;;;;3.13;2.65;;;12.10;99.90;;;;;;2024683;29;20192;-77
2021/07/20 03:27:55;;;;;;;3.55;3.20;;;12.00;99.90;;;;;;2025216;29;20224;-77
2021/07/20 03:28:58;;;;;;;4.13;3.67;;;12.10;99.90;;;;;;2025188;29;20185;-77
2021/07/20 03:30:01;;;;;;;2.63;2.42;;;12.10;99.90;;;;;;2017155;29;20206;-77
2021/07/20 03:31:02;;;;;;;5.55;3.42;;;12.10;99.90;;;;;;2017790;29;20197;-76
2021/07/20 03:32:04;;;;;;;4.05;2.10;;;12.00;99.90;;;;;;2033827;29;20200;-77
2021/07/20 03:33:06;;;;;;;3.03;2.83;;;12.00;99.90;;;;;;2041767;29;20646;-77
2021/07/20 03:34:08;;;;;;;6.25;3.58;;;12.00;99.90;;;;;;2034142;29;20679;-77
2021/07/20 03:35:10;;;;;;;3.70;2.63;;;12.00;99.90;;;;;;2026395;29;20289;-77
2021/07/20 03:36:12;;;;;;;10.27;3.17;;;11.90;99.90;;;;;;2026677;29;20652;-77
2021/07/20 03:37:13;;;;;;;6.75;3.13;;;11.90;99.90;;;;;;2033869;29;20598;-77
2021/07/20 03:38:15;;;;;;;6.50;3.75;;;12.00;99.90;;;;;;2034299;29;20223;-77
2021/07/20 03:39:17;;;;;;;9.55;3.80;;;12.00;99.90;;;;;;2034215;29;20187;-76
2021/07/20 03:40:19;;;;;;;3.78;3.47;;;11.90;99.90;;;;;;2034127;29;20213;-77
2021/07/20 03:41:24;;;;;;;3.70;3.33;;;11.90;99.90;;;;;;2026490;29;20189;-77
2021/07/20 03:42:26;;;;;;;3.90;3.47;;;11.90;99.90;;;;;;2026679;29;20241;-77
2021/07/20 03:43:28;;;;;;;2.50;2.28;;;11.90;99.90;;;;;;2026491;29;20185;-77
2021/07/20 03:44:30;;;;;;;5.45;3.83;;;11.90;99.90;;;;;;2026460;29;20182;-77
2021/07/20 03:45:31;;;;;;;2.85;2.28;;;11.90;99.90;;;;;;2026462;29;20692;-77
2021/07/20 03:46:33;;;;;;;3.47;3.22;;;12.00;99.90;;;;;;2026595;29;20268;-76
2021/07/20 03:47:37;;;;;;;2.90;2.70;;;11.90;99.90;;;;;;2034030;29;20205;-76
2021/07/20 03:48:37;;;;;;;3.97;3.58;;;11.90;99.90;;;;;;2041885;29;20184;-78
2021/07/20 03:49:39;;;;;;;9.80;2.67;;;11.90;99.90;;;;;;2034265;29;20197;-77
2021/07/20 03:50:42;;;;;;;5.28;3.33;;;11.90;99.90;;;;;;2026792;29;20221;-77
2021/07/20 03:51:43;;;;;;;2.95;2.75;;;11.90;99.90;;;;;;2034677;29;20264;-77
2021/07/20 03:52:46;;;;;;;2.88;2.58;;;11.90;99.90;;;;;;2034309;29;20181;-77
2021/07/20 03:53:48;;;;;;;3.50;2.72;;;11.90;99.90;;;;;;2026774;29;20657;-77
2021/07/20 03:54:49;;;;;;;2.35;2.15;;;11.90;99.90;;;;;;2026569;29;20192;-77
2021/07/20 03:55:55;;;;;;;15.43;3.43;;;11.80;99.90;;;;;;2034426;29;20711;-77
2021/07/20 03:56:58;;;;;;;4.72;2.85;;;11.80;99.90;;;;;;2034346;29;20251;-78
2021/07/20 03:57:59;;;;;;;3.13;2.92;;;11.80;99.90;;;;;;2034561;29;20299;-76
2021/07/20 03:59:00;;;;;;;2.90;2.43;;;11.80;99.90;;;;;;2026599;29;20197;-77
2021/07/20 04:00:07;;;;;;;2.80;2.60;;;11.80;99.90;;;;;;2026465;29;20198;-77
2021/07/20 04:01:09;;;;;;;3.00;2.80;;;11.80;99.90;;;;;;2042219;29;20705;-77
2021/07/20 04:02:11;;;;;;;5.47;3.10;;;11.80;99.90;;;;;;2034264;29;20184;-77
2021/07/20 04:03:26;;;;;;;2.88;2.67;;;11.80;99.90;;;;;;2034116;29;20181;-75
2021/07/20 04:04:35;;;;;;;9.35;2.97;;;11.80;99.90;;;;;;2033778;29;20173;-77
2021/07/20 04:05:38;;;;;;;4.47;3.05;;;11.70;99.90;;;;;;2028535;29;20189;-76
2021/07/20 04:06:40;;;;;;;3.78;3.33;;;11.70;99.90;;;;;;2034272;29;20189;-77
2021/07/20 04:07:46;;;;;;;3.17;2.88;;;11.70;99.90;;;;;;2034256;29;20184;-76
2021/07/20 04:08:47;;;;;;;3.45;3.03;;;11.70;99.90;;;;;;2034042;29;20165;-76
2021/07/20 04:09:49;;;;;;;2.58;2.17;;;11.70;99.90;;;;;;2025334;29;20221;-76
2021/07/20 04:10:52;;;;;;;8.27;3.30;;;11.70;99.90;;;;;;2025786;29;20191;-77
2021/07/20 04:11:53;;;;;;;3.45;3.15;;;11.70;99.90;;;;;;2033246;29;20207;-76
2021/07/20 04:12:54;;;;;;;2.88;2.50;;;11.70;99.90;;;;;;2033536;29;20197;-77
2021/07/20 04:13:56;;;;;;;11.80;3.83;;;11.70;99.90;;;;;;2041173;29;20182;-76
2021/07/20 04:14:57;;;;;;;2.60;2.40;;;11.70;99.90;;;;;;2041201;29;20235;-77
2021/07/20 04:16:05;;;;;;;3.50;3.23;;;11.80;99.90;;;;;;2033341;29;20244;-78
2021/07/20 04:17:08;;;;;;;4.47;3.13;;;11.80;99.90;;;;;;2033318;29;20496;-76
2021/07/20 04:18:08;;;;;;;8.50;3.22;;;11.80;99.90;;;;;;2033270;29;20267;-75
2021/07/20 04:19:09;;;;;;;3.30;2.33;;;11.80;99.90;;;;;;2033369;29;20177;-76
2021/07/20 04:20:12;;;;;;;2.92;2.72;;;11.80;99.90;;;;;;2025340;29;20296;-76
2021/07/20 04:21:13;;;;;;;3.45;3.08;;;11.80;99.90;;;;;;2018305;29;20194;-77
2021/07/20 04:22:15;;;;;;;3.83;2.67;;;11.80;99.90;;;;;;2025580;29;20923;-76
2021/07/20 04:23:22;;;;;;;2.70;2.50;;;11.80;99.90;;;;;;2025767;29;20178;-76
2021/07/20 04:24:27;;;;;;;2.42;2.10;;;11.80;99.90;;;;;;2026528;29;20341;-75
2021/07/20 04:25:29;;;;;;;2.47;2.28;;;11.80;99.90;;;;;;2027058;29;20244;-76
2021/07/20 04:26:31;;;;;;;3.28;2.88;;;11.80;99.90;;;;;;2033906;29;20189;-75
2021/07/20 04:27:36;;;;;;;4.15;2.65;;;11.80;99.90;;;;;;2041667;29;20267;-76
2021/07/20 04:28:37;;;;;;;2.60;2.03;;;11.80;99.90;;;;;;2041251;29;20184;-76
2021/07/20 04:29:38;;;;;;;3.33;2.67;;;11.90;99.90;;;;;;2041563;29;20695;-76
2021/07/20 04:30:42;;;;;;;5.47;2.67;;;11.90;99.90;;;;;;2033719;29;20177;-75
2021/07/20 04:31:43;;;;;;;4.28;3.58;;;11.90;99.90;;;;;;2034153;29;20212;-76
2021/07/20 04:32:48;;;;;;;4.18;3.15;;;11.90;99.90;;;;;;2018318;29;20198;-76
2021/07/20 04:33:50;;;;;;;5.18;3.17;;;11.90;99.90;;;;;;2019411;29;20221;-75
2021/07/20 04:34:52;;;;;;;7.25;4.15;;;11.90;99.90;;;;;;2026008;29;20540;-76
2021/07/20 04:35:56;;;;;;;4.50;3.20;;;11.90;99.90;;;;;;2026088;29;20218;-75
2021/07/20 04:36:57;;;;;;;2.67;2.42;;;12.00;99.90;;;;;;2026326;29;20219;-74
2021/07/20 04:37:59;;;;;;;3.83;2.22;;;12.00;99.90;;;;;;2025930;29;20213;-75
2021/07/20 04:39:00;;;;;;;2.60;2.40;;;11.90;99.90;;;;;;2026140;29;20214;-76
2021/07/20 04:40:02;;;;;;;6.00;2.60;;;12.00;99.90;;;;;;2018216;29;20282;-76
2021/07/20 04:41:03;;;;;;;4.10;2.63;;;11.90;99.90;;;;;;2025991;29;20180;-76
2021/07/20 04:42:04;;;;;;;3.37;2.77;;;11.90;99.90;;;;;;2033735;29;20666;-75
2021/07/20 04:43:07;;;;;;;3.55;2.97;;;11.90;99.90;;;;;;2033420;29;20205;-75
2021/07/20 04:44:08;;;;;;;2.35;2.15;;;11.90;99.90;;;;;;2018095;29;20189;-76
2021/07/20 04:45:11;;;;;;;4.80;3.28;;;11.90;99.90;;;;;;2018192;29;20254;-76
2021/07/20 04:46:13;;;;;;;7.72;3.25;;;12.00;99.90;;;;;;2025890;29;20190;-76
2021/07/20 04:47:13;;;;;;;3.85;3.47;;;12.00;99.90;;;;;;2017816;29;20265;-75
2021/07/20 04:48:15;;;;;;;4.43;2.50;;;11.90;99.90;;;;;;2025660;29;20182;-76
2021/07/20 04:49:19;;;;;;;4.55;4.10;;;12.00;99.90;;;;;;2033508;29;20606;-78
2021/07/20 04:50:20;;;;;;;3.80;3.20;;;12.00;99.90;;;;;;2026223;29;20242;-74
2021/07/20 04:51:22;;;;;;;5.13;3.53;;;12.00;99.90;;;;;;2026074;29;20178;-76
2021/07/20 04:52:23;;;;;;;3.35;3.08;;;12.00;99.90;;;;;;2017996;29;20607;-75
2021/07/20 04:53:25;;;;;;;3.43;3.13;;;12.10;99.90;;;;;;2017724;29;20195;-76
2021/07/20 04:54:25;;;;;;;6.13;3.08;;;12.20;99.90;;;;;;2017870;29;20568;-76
2021/07/20 04:55:30;;;;;;;2.33;2.03;;;12.20;99.90;;;;;;2025302;29;20185;-76
2021/07/20 04:56:31;;;;;;;3.45;2.85;;;12.20;99.90;;;;;;2032399;29;20579;-75
2021/07/20 04:57:32;;;;;;;5.18;2.42;;;12.20;99.90;;;;;;2025548;29;20217;-76
2021/07/20 04:58:34;;;;;;;2.83;2.63;;;12.20;99.90;;;;;;2031776;29;20221;-76
2021/07/20 04:59:35;;;;;;;2.67;2.47;;;12.20;99.90;;;;;;2033269;29;20440;-78
2021/07/20 05:00:36;;;;;;;4.20;3.70;;;12.20;99.90;;;;;;2033195;29;20224;-77
2021/07/20 05:01:40;;;;;;;2.45;2.25;;;12.20;99.90;;;;;;2033412;29;20178;-76
2021/07/20 05:02:46;;;;;;;3.58;3.28;;;12.20;99.90;;;;;;2033042;29;20181;-75
2021/07/20 05:03:47;;;;;;;4.68;3.75;;;12.20;99.90;;;;;;2026135;29;20229;-76
2021/07/20 05:04:48;;;;;;;4.07;3.10;;;12.30;99.90;;;;;;2033431;29;20523;-76
2021/07/20 05:05:53;;;;;;;6.90;2.93;;;12.30;99.90;;;;;;2033501;29;20194;-75
2021/07/20 05:06:54;;;;;;;3.78;3.38;;;12.30;99.90;;;;;;2026019;29;20192;-75
2021/07/20 05:07:56;;;;;;;3.20;2.30;;;12.30;99.90;;;;;;2033326;29;20237;-76
2021/07/20 05:08:58;;;;;;;3.13;2.83;;;12.40;99.90;;;;;;2036831;29;20177;-74
2021/07/20 05:09:59;;;;;;;4.45;3.00;;;12.40;99.90;;;;;;2034741;29;20646;-78
2021/07/20 05:11:01;;;;;;;5.43;3.90;;;12.40;99.90;;;;;;2033157;29;20271;-77
2021/07/20 05:12:02;;;;;;;3.53;2.78;;;12.40;99.90;;;;;;2033610;29;20193;-76
2021/07/20 05:13:07;;;;;;;5.72;3.72;;;12.40;99.90;;;;;;2033184;29;20177;-76
2021/07/20 05:14:09;;;;;;;4.18;3.78;;;12.50;99.90;;;;;;2026116;29;20202;-76
2021/07/20 05:15:16;;;;;;;5.05;3.63;;;12.50;99.90;;;;;;2025540;29;20174;-76
2021/07/20 05:16:17;;;;;;;3.58;2.55;;;12.50;99.90;;;;;;2033639;29;20195;-77
2021/07/20 05:17:19;;;;;;;8.73;3.50;;;12.50;99.90;;;;;;2040995;29;20244;-76
2021/07/20 05:18:21;;;;;;;4.22;3.83;;;12.50;99.90;;;;;;2040998;29;20208;-75
2021/07/20 05:19:23;;;;;;;3.28;2.97;;;12.60;99.90;;;;;;2033089;29;20193;-76
2021/07/20 05:20:25;;;;;;;3.47;2.72;;;12.60;99.90;;;;;;2033506;29;20185;-75
2021/07/20 05:21:26;;;;;;;3.25;2.75;;;12.60;99.90;;;;;;2041052;29;20860;-75
2021/07/20 05:22:28;;;;;;;3.75;3.25;;;12.60;99.90;;;;;;2041210;29;20195;-76
2021/07/20 05:23:30;;;;;;;3.60;3.25;;;12.70;99.90;;;;;;2041165;29;20232;-76
2021/07/20 05:24:32;;;;;;;4.72;2.97;;;12.70;99.90;;;;;;2041112;29;20199;-76
2021/07/20 05:25:33;;;;;;;2.63;2.42;;;12.70;99.90;;;;;;2025387;29;20192;-77
2021/07/20 05:26:34;;;;;;;5.32;3.45;;;12.70;99.90;;;;;;2025672;29;20311;-76
2021/07/20 05:27:38;;;;;;;3.80;3.50;;;12.70;99.90;;;;;;2025417;29;20293;-76
2021/07/20 05:28:40;;;;;;;3.28;2.97;;;12.80;99.90;;;;;;2026004;29;20287;-75
2021/07/20 05:29:46;;;;;;;5.70;3.95;;;12.80;99.90;;;;;;2017644;29;20253;-75
2021/07/20 05:30:50;;;;;;;4.68;3.13;;;12.90;99.90;;;;;;2026914;29;20201;-76
2021/07/20 05:31:53;;;;;;;4.22;3.80;;;12.90;99.90;;;;;;2033086;29;20189;-75